createdAt,value
2023-02-02T00:01:58.594Z,3.60
2023-02-02T00:04:26.799Z,3.60
2023-02-02T00:06:53.844Z,4.70
2023-02-02T00:09:20.742Z,3.80
2023-02-02T00:11:48.071Z,3.70
2023-02-02T00:14:14.718Z,3.80
2023-02-02T00:16:48.543Z,3.80
2023-02-02T00:19:19.500Z,3.80
2023-02-02T00:21:46.100Z,4.10
2023-02-02T00:24:13.942Z,3.80
2023-02-02T00:26:41.588Z,3.80
2023-02-02T00:29:11.311Z,3.80
2023-02-02T00:31:37.917Z,3.80
2023-02-02T00:34:04.530Z,3.80
2023-02-02T00:36:31.182Z,3.70
2023-02-02T00:38:57.828Z,3.80
2023-02-02T00:41:24.394Z,3.80
2023-02-02T00:44:10.945Z,3.80
2023-02-02T00:46:41.037Z,3.80
2023-02-02T00:49:08.233Z,3.70
2023-02-02T00:51:35.642Z,3.80
2023-02-02T00:54:02.306Z,3.70
2023-02-02T00:56:28.942Z,4.30
2023-02-02T00:58:55.736Z,3.80
2023-02-02T01:01:22.646Z,3.70
2023-02-02T01:03:49.665Z,3.80
2023-02-02T01:06:16.750Z,3.70
2023-02-02T01:08:43.474Z,3.70
2023-02-02T01:11:10.052Z,3.80
2023-02-02T01:13:37.248Z,3.80
2023-02-02T01:16:04.448Z,3.80
2023-02-02T01:18:31.487Z,3.80
2023-02-02T01:21:02.954Z,6.20
2023-02-02T01:23:29.784Z,3.80
2023-02-02T01:25:57.421Z,3.80
2023-02-02T01:28:24.405Z,3.80
2023-02-02T01:30:51.320Z,3.80
2023-02-02T01:33:18.260Z,3.90
2023-02-02T01:35:48.848Z,3.90
2023-02-02T01:38:15.801Z,3.90
2023-02-02T01:40:50.173Z,3.90
2023-02-02T01:43:40.033Z,3.90
2023-02-02T01:46:10.084Z,3.90
2023-02-02T01:48:36.934Z,3.90
2023-02-02T01:51:08.747Z,3.90
2023-02-02T01:53:35.726Z,3.90
2023-02-02T01:56:03.286Z,3.90
2023-02-02T01:58:33.377Z,3.90
2023-02-02T02:01:00.045Z,3.90
2023-02-02T02:03:28.283Z,3.90
2023-02-02T02:05:59.535Z,4.00
2023-02-02T02:08:28.881Z,3.90
2023-02-02T02:10:56.032Z,4.00
2023-02-02T02:13:43.873Z,3.90
2023-02-02T02:16:21.102Z,3.90
2023-02-02T02:18:53.865Z,3.90
2023-02-02T02:21:42.162Z,3.80
2023-02-02T02:24:39.534Z,3.80
2023-02-02T02:27:06.074Z,3.80
2023-02-02T02:29:51.525Z,3.90
2023-02-02T02:32:18.058Z,3.80
2023-02-02T02:35:03.478Z,3.80
2023-02-02T02:37:50.400Z,3.80
2023-02-02T02:40:26.809Z,3.70
2023-02-02T02:42:55.621Z,3.80
2023-02-02T02:45:23.923Z,3.80
2023-02-02T02:47:51.284Z,3.90
2023-02-02T02:50:17.889Z,3.90
2023-02-02T02:52:45.352Z,3.90
2023-02-02T02:55:12.686Z,3.90
2023-02-02T02:57:58.665Z,3.90
2023-02-02T03:00:31.304Z,3.80
2023-02-02T03:03:16.930Z,3.90
2023-02-02T03:05:49.716Z,3.80
2023-02-02T03:08:20.666Z,3.80
2023-02-02T03:10:47.509Z,3.90
2023-02-02T03:13:14.896Z,3.90
2023-02-02T03:15:43.029Z,3.90
2023-02-02T03:18:09.945Z,3.90
2023-02-02T03:20:36.565Z,3.80
2023-02-02T03:23:03.117Z,3.90
2023-02-02T03:25:29.733Z,3.80
2023-02-02T03:27:56.340Z,3.80
2023-02-02T03:30:23.001Z,3.80
2023-02-02T03:32:50.207Z,3.80
2023-02-02T03:35:16.853Z,3.80
2023-02-02T03:37:43.425Z,3.80
2023-02-02T03:40:10.457Z,3.70
2023-02-02T03:42:37.014Z,3.70
2023-02-02T03:45:03.790Z,3.70
2023-02-02T03:47:30.399Z,3.70
2023-02-02T03:49:57.019Z,3.80
2023-02-02T03:52:23.927Z,3.80
2023-02-02T03:54:50.642Z,3.80
2023-02-02T03:57:17.297Z,3.80
2023-02-02T03:59:43.904Z,3.80
2023-02-02T04:02:10.517Z,3.80
2023-02-02T04:04:37.107Z,3.80
2023-02-02T04:07:03.685Z,3.80
2023-02-02T04:09:30.258Z,3.80
2023-02-02T04:11:56.943Z,3.80
2023-02-02T04:14:23.556Z,3.80
2023-02-02T04:16:50.123Z,3.80
2023-02-02T04:19:17.033Z,3.80
2023-02-02T04:21:43.628Z,3.80
2023-02-02T04:24:10.926Z,3.80
2023-02-02T04:26:37.520Z,2.60
2023-02-02T04:29:04.158Z,3.80
2023-02-02T04:31:31.946Z,3.80
2023-02-02T04:33:59.361Z,3.80
2023-02-02T04:36:26.095Z,3.80
2023-02-02T04:38:53.626Z,3.80
2023-02-02T04:41:20.799Z,3.80
2023-02-02T04:43:47.451Z,3.80
2023-02-02T04:46:14.448Z,6.40
2023-02-02T04:48:42.030Z,3.80
2023-02-02T04:51:10.351Z,3.80
2023-02-02T04:53:36.951Z,3.80
2023-02-02T04:56:07.432Z,3.80
2023-02-02T04:58:34.030Z,3.80
2023-02-02T05:01:00.762Z,3.90
2023-02-02T05:03:27.406Z,3.90
2023-02-02T05:06:03.878Z,3.90
2023-02-02T05:08:30.449Z,3.90
2023-02-02T05:10:57.123Z,4.00
2023-02-02T05:13:23.722Z,3.90
2023-02-02T05:15:50.415Z,6.60
2023-02-02T05:18:17.025Z,3.90
2023-02-02T05:20:43.613Z,3.90
2023-02-02T05:23:10.209Z,6.80
2023-02-02T05:25:37.048Z,3.90
2023-02-02T05:28:03.725Z,4.00
2023-02-02T05:30:32.590Z,6.10
2023-02-02T05:32:59.986Z,3.90
2023-02-02T05:35:26.862Z,3.90
2023-02-02T05:37:53.616Z,3.90
2023-02-02T05:40:20.302Z,3.90
2023-02-02T05:42:49.889Z,3.90
2023-02-02T05:45:16.716Z,4.00
2023-02-02T05:47:43.370Z,3.90
2023-02-02T05:50:10.264Z,3.90
2023-02-02T05:52:37.384Z,3.90
2023-02-02T05:55:04.159Z,4.00
2023-02-02T05:57:30.826Z,3.90
2023-02-02T05:59:57.566Z,4.00
2023-02-02T06:02:24.218Z,6.90
2023-02-02T06:04:50.853Z,6.30
2023-02-02T06:07:17.481Z,3.90
2023-02-02T06:09:44.137Z,3.90
2023-02-02T06:12:10.766Z,3.90
2023-02-02T06:14:37.422Z,3.90
2023-02-02T06:17:04.066Z,3.90
2023-02-02T06:19:30.675Z,3.90
2023-02-02T06:21:57.239Z,4.00
2023-02-02T06:24:24.510Z,3.90
2023-02-02T06:26:51.244Z,3.90
2023-02-02T06:29:17.853Z,4.00
2023-02-02T06:31:44.610Z,4.00
2023-02-02T06:34:14.479Z,3.90
2023-02-02T06:36:41.674Z,3.90
2023-02-02T06:39:09.617Z,3.90
2023-02-02T06:41:36.555Z,3.90
2023-02-02T06:44:03.287Z,3.90
2023-02-02T06:46:29.937Z,3.90
2023-02-02T06:48:56.607Z,3.90
2023-02-02T06:51:23.197Z,3.80
2023-02-02T06:53:49.774Z,3.80
2023-02-02T06:56:16.579Z,3.80
2023-02-02T06:58:43.142Z,3.80
2023-02-02T07:01:11.068Z,3.70
2023-02-02T07:03:38.063Z,3.80
2023-02-02T07:06:12.112Z,3.90
2023-02-02T07:08:38.694Z,3.80
2023-02-02T07:11:13.571Z,3.80
2023-02-02T07:13:42.443Z,3.80
2023-02-02T07:16:09.503Z,3.90
2023-02-02T07:18:36.976Z,3.90
2023-02-02T07:21:03.619Z,3.90
2023-02-02T07:23:30.215Z,3.80
2023-02-02T07:26:03.924Z,3.90
2023-02-02T07:28:30.711Z,3.80
2023-02-02T07:30:57.507Z,3.90
2023-02-02T07:33:24.286Z,3.90
2023-02-02T07:35:51.127Z,4.00
2023-02-02T07:38:17.769Z,4.00
2023-02-02T07:40:45.002Z,4.00
2023-02-02T07:43:11.630Z,4.10
2023-02-02T07:45:38.650Z,6.40
2023-02-02T07:48:05.575Z,4.20
2023-02-02T07:50:32.213Z,4.10
2023-02-02T07:52:59.601Z,4.20
2023-02-02T07:55:26.282Z,4.30
2023-02-02T07:57:55.353Z,4.30
2023-02-02T08:00:22.324Z,4.30
2023-02-02T08:02:49.375Z,4.30
2023-02-02T08:05:16.175Z,5.90
2023-02-02T08:07:43.359Z,4.30
2023-02-02T08:10:10.244Z,4.40
2023-02-02T08:12:36.851Z,4.30
2023-02-02T08:15:03.593Z,4.40
2023-02-02T08:17:30.226Z,4.30
2023-02-02T08:19:56.836Z,4.40
2023-02-02T08:22:23.453Z,4.40
2023-02-02T08:24:50.075Z,4.40
2023-02-02T08:27:17.019Z,4.50
2023-02-02T08:29:43.784Z,4.60
2023-02-02T08:32:10.417Z,4.50
2023-02-02T08:34:37.091Z,4.60
2023-02-02T08:37:04.405Z,4.60
2023-02-02T08:39:31.032Z,4.70
2023-02-02T08:41:57.970Z,4.80
2023-02-02T08:44:26.418Z,4.70
2023-02-02T08:47:06.652Z,4.70
2023-02-02T08:49:33.568Z,4.80
2023-02-02T08:52:03.068Z,4.80
2023-02-02T08:54:29.731Z,4.80
2023-02-02T08:56:56.603Z,4.80
2023-02-02T08:59:23.235Z,4.80
2023-02-02T09:01:49.981Z,4.70
2023-02-02T09:04:16.638Z,4.70
2023-02-02T09:06:43.693Z,4.70
2023-02-02T09:09:12.527Z,4.60
2023-02-02T09:11:39.427Z,4.70
2023-02-02T09:14:06.668Z,4.70
2023-02-02T09:16:34.269Z,4.70
2023-02-02T09:19:01.157Z,4.70
2023-02-02T09:21:27.795Z,4.60
2023-02-02T09:23:54.693Z,4.70
2023-02-02T09:26:23.369Z,1.70
2023-02-02T09:28:54.705Z,4.70
2023-02-02T09:31:21.470Z,4.70
2023-02-02T09:33:48.154Z,4.80
2023-02-02T09:36:15.845Z,4.80
2023-02-02T09:38:42.816Z,4.80
2023-02-02T09:41:29.789Z,4.80
2023-02-02T09:44:04.410Z,8.10
2023-02-02T09:46:43.327Z,4.80
2023-02-02T09:49:12.616Z,4.80
2023-02-02T09:51:41.240Z,4.80
2023-02-02T09:54:22.097Z,4.80
2023-02-02T09:56:55.811Z,4.70
2023-02-02T09:59:31.100Z,4.70
2023-02-02T10:02:01.154Z,4.70
2023-02-02T10:04:32.028Z,4.80
2023-02-02T10:07:00.651Z,4.80
2023-02-02T10:09:48.101Z,4.80
2023-02-02T10:12:33.513Z,4.80
2023-02-02T10:15:06.429Z,4.80
2023-02-02T10:17:59.428Z,4.80
2023-02-02T10:20:42.614Z,4.80
2023-02-02T10:23:25.082Z,4.80
2023-02-02T10:26:10.545Z,4.80
2023-02-02T10:28:40.224Z,4.80
2023-02-02T10:31:11.294Z,4.80
2023-02-02T10:33:39.329Z,4.90
2023-02-02T10:36:06.034Z,6.50
2023-02-02T10:38:46.024Z,4.80
2023-02-02T10:41:27.943Z,4.80
2023-02-02T10:44:09.145Z,4.80
2023-02-02T10:46:52.835Z,4.80
2023-02-02T10:49:35.528Z,4.80
2023-02-02T10:52:06.526Z,4.80
2023-02-02T10:54:54.956Z,4.80
2023-02-02T10:57:42.795Z,4.80
2023-02-02T11:00:22.609Z,4.80
2023-02-02T11:02:50.287Z,4.80
2023-02-02T11:05:43.469Z,4.80
2023-02-02T11:08:14.566Z,4.80
2023-02-02T11:10:42.336Z,4.80
2023-02-02T11:13:12.867Z,4.80
2023-02-02T11:15:39.624Z,5.40
2023-02-02T11:18:15.257Z,4.80
2023-02-02T11:20:42.115Z,4.90
2023-02-02T11:23:14.874Z,4.90
2023-02-02T11:25:42.816Z,4.90
2023-02-02T11:28:18.821Z,5.00
2023-02-02T11:30:52.258Z,5.00
2023-02-02T11:33:21.158Z,5.00
2023-02-02T11:35:55.593Z,5.00
2023-02-02T11:38:22.268Z,5.10
2023-02-02T11:41:05.339Z,5.10
2023-02-02T11:43:41.310Z,5.20
2023-02-02T11:46:17.152Z,5.20
2023-02-02T11:48:59.271Z,5.60
2023-02-02T11:51:26.880Z,5.20
2023-02-02T11:54:02.907Z,5.30
2023-02-02T11:56:29.926Z,5.30
2023-02-02T11:58:59.183Z,5.30
2023-02-02T12:01:36.639Z,5.30
2023-02-02T12:04:21.841Z,5.30
2023-02-02T12:06:48.464Z,5.30
2023-02-02T12:09:17.421Z,5.30
2023-02-02T12:12:19.598Z,5.30
2023-02-02T12:14:46.224Z,5.40
2023-02-02T12:17:35.150Z,5.40
2023-02-02T12:20:40.538Z,5.40
2023-02-02T12:23:25.425Z,5.40
2023-02-02T12:26:10.897Z,5.40
2023-02-02T12:28:53.610Z,5.40
2023-02-02T12:31:30.072Z,5.40
2023-02-02T12:34:11.452Z,5.40
2023-02-02T12:36:38.381Z,5.50
2023-02-02T12:39:17.235Z,5.50
2023-02-02T12:42:04.163Z,5.50
2023-02-02T12:44:36.827Z,5.50
2023-02-02T12:47:25.545Z,5.60
2023-02-02T12:50:12.552Z,5.60
2023-02-02T12:52:47.591Z,5.60
2023-02-02T12:55:34.855Z,5.70
2023-02-02T12:58:01.795Z,5.70
2023-02-02T13:00:39.444Z,5.70
2023-02-02T13:03:25.868Z,5.60
2023-02-02T13:05:53.374Z,5.60
2023-02-02T13:08:23.088Z,5.60
2023-02-02T13:10:53.230Z,5.70
2023-02-02T13:13:23.705Z,5.70
2023-02-02T13:15:55.020Z,8.10
2023-02-02T13:18:30.279Z,5.70
2023-02-02T13:21:01.758Z,5.80
2023-02-02T13:23:30.810Z,7.70
2023-02-02T13:26:20.840Z,5.90
2023-02-02T13:28:56.676Z,5.90
2023-02-02T13:31:43.961Z,5.80
2023-02-02T13:34:15.394Z,5.80
2023-02-02T13:36:44.411Z,5.80
2023-02-02T13:39:14.777Z,5.70
2023-02-02T13:41:41.607Z,5.70
2023-02-02T13:44:32.102Z,5.60
2023-02-02T13:47:02.895Z,5.60
2023-02-02T13:49:42.755Z,5.50
2023-02-02T13:52:24.766Z,5.50
2023-02-02T13:55:10.055Z,5.40
2023-02-02T13:57:45.481Z,5.40
2023-02-02T14:00:15.314Z,5.40
2023-02-02T14:02:44.166Z,6.30
2023-02-02T14:05:21.333Z,5.40
2023-02-02T14:07:48.338Z,5.40
2023-02-02T14:10:21.345Z,5.40
2023-02-02T14:12:48.050Z,5.50
2023-02-02T14:15:14.727Z,5.50
2023-02-02T14:17:41.914Z,5.50
2023-02-02T14:20:28.450Z,5.60
2023-02-02T14:22:55.351Z,5.60
2023-02-02T14:25:33.971Z,5.60
2023-02-02T14:28:01.580Z,5.60
2023-02-02T14:30:29.564Z,5.70
2023-02-02T14:33:16.131Z,6.80
2023-02-02T14:35:45.464Z,5.80
2023-02-02T14:38:18.787Z,5.70
2023-02-02T14:40:45.411Z,5.70
2023-02-02T14:43:37.670Z,5.70
2023-02-02T14:46:13.293Z,5.60
2023-02-02T14:48:59.901Z,5.60
2023-02-02T14:51:29.528Z,5.60
2023-02-02T14:54:00.926Z,5.60
2023-02-02T14:56:39.809Z,5.50
2023-02-02T14:59:07.496Z,5.50
2023-02-02T15:01:35.572Z,5.50
2023-02-02T15:04:21.298Z,5.40
2023-02-02T15:06:48.626Z,5.40
2023-02-02T15:09:27.678Z,5.40
2023-02-02T15:12:03.186Z,5.30
2023-02-02T15:14:35.891Z,5.30
2023-02-02T15:17:21.012Z,5.30
2023-02-02T15:19:51.810Z,5.20
2023-02-02T15:22:37.149Z,5.30
2023-02-02T15:25:07.908Z,5.20
2023-02-02T15:27:38.686Z,5.20
2023-02-02T15:30:11.883Z,5.30
2023-02-02T15:32:39.788Z,5.20
2023-02-02T15:35:07.922Z,5.20
2023-02-02T15:37:40.270Z,5.20
2023-02-02T15:40:20.354Z,5.20
2023-02-02T15:42:52.857Z,5.20
2023-02-02T15:45:29.437Z,5.10
2023-02-02T15:47:57.640Z,5.10
2023-02-02T15:50:24.485Z,5.10
2023-02-02T15:52:52.195Z,5.10
2023-02-02T15:55:39.086Z,5.10
2023-02-02T15:58:42.010Z,5.10
2023-02-02T16:01:15.991Z,5.00
2023-02-02T16:04:08.242Z,4.90
2023-02-02T16:06:35.076Z,5.00
2023-02-02T16:09:05.546Z,5.00
2023-02-02T16:11:32.168Z,5.00
2023-02-02T16:13:59.358Z,5.00
2023-02-02T16:16:30.598Z,4.90
2023-02-02T16:19:01.827Z,4.90
2023-02-02T16:21:29.408Z,4.90
2023-02-02T16:23:56.333Z,4.90
2023-02-02T16:26:25.452Z,4.90
2023-02-02T16:28:52.123Z,4.90
2023-02-02T16:31:19.116Z,4.90
2023-02-02T16:33:46.026Z,4.90
2023-02-02T16:36:25.674Z,4.80
2023-02-02T16:38:53.409Z,4.80
2023-02-02T16:41:26.520Z,4.80
2023-02-02T16:43:53.408Z,4.80
2023-02-02T16:46:43.110Z,4.90
2023-02-02T16:49:18.095Z,4.80
2023-02-02T16:51:46.324Z,4.80
2023-02-02T16:54:20.446Z,4.80
2023-02-02T16:56:49.233Z,4.80
2023-02-02T16:59:26.332Z,4.80
2023-02-02T17:01:57.703Z,4.80
2023-02-02T17:04:46.550Z,4.80
2023-02-02T17:07:15.904Z,4.80
2023-02-02T17:09:43.345Z,4.90
2023-02-02T17:12:30.687Z,7.40
2023-02-02T17:15:03.376Z,4.80
2023-02-02T17:17:30.007Z,4.90
2023-02-02T17:19:56.765Z,4.80
2023-02-02T17:22:24.801Z,4.90
2023-02-02T17:24:52.260Z,4.80
2023-02-02T17:27:25.785Z,4.80
2023-02-02T17:29:52.911Z,4.80
2023-02-02T17:32:19.557Z,4.90
2023-02-02T17:34:46.332Z,4.80
2023-02-02T17:37:12.955Z,4.70
2023-02-02T17:39:39.596Z,4.80
2023-02-02T17:42:06.769Z,3.30
2023-02-02T17:44:34.175Z,6.90
2023-02-02T17:47:00.810Z,4.80
2023-02-02T17:49:27.454Z,6.70
2023-02-02T17:51:54.089Z,4.80
2023-02-02T17:54:20.662Z,4.80
2023-02-02T17:56:47.387Z,5.10
2023-02-02T17:59:14.038Z,4.80
2023-02-02T18:01:41.890Z,4.80
2023-02-02T18:04:10.919Z,4.80
2023-02-02T18:06:38.302Z,7.00
2023-02-02T18:09:04.936Z,4.70
2023-02-02T18:11:31.586Z,4.70
2023-02-02T18:13:58.194Z,4.80
2023-02-02T18:16:24.853Z,4.80
2023-02-02T18:18:51.502Z,4.80
2023-02-02T18:21:18.126Z,4.70
2023-02-02T18:23:46.883Z,6.30
2023-02-02T18:26:17.334Z,4.70
2023-02-02T18:28:44.458Z,4.70
2023-02-02T18:31:12.411Z,4.70
2023-02-02T18:33:40.601Z,4.70
2023-02-02T18:36:08.700Z,4.80
2023-02-02T18:38:35.332Z,4.70
2023-02-02T18:41:03.593Z,4.70
2023-02-02T18:43:30.281Z,4.70
2023-02-02T18:45:58.058Z,4.70
2023-02-02T18:48:24.608Z,4.60
2023-02-02T18:50:51.164Z,4.60
2023-02-02T18:53:18.030Z,4.60
2023-02-02T18:55:44.690Z,4.70
2023-02-02T18:58:14.308Z,4.70
2023-02-02T19:00:41.327Z,4.60
2023-02-02T19:03:07.952Z,4.70
2023-02-02T19:05:53.263Z,7.00
2023-02-02T19:08:19.928Z,4.60
2023-02-02T19:10:46.563Z,4.70
2023-02-02T19:13:19.399Z,4.60
2023-02-02T19:15:47.524Z,4.50
2023-02-02T19:18:15.767Z,4.50
2023-02-02T19:20:42.898Z,4.50
2023-02-02T19:23:26.169Z,7.00
2023-02-02T19:25:56.439Z,4.40
2023-02-02T19:28:23.238Z,4.50
2023-02-02T19:30:51.805Z,4.30
2023-02-02T19:33:19.014Z,4.30
2023-02-02T19:35:47.901Z,4.30
2023-02-02T19:38:15.356Z,4.30
2023-02-02T19:40:42.462Z,4.20
2023-02-02T19:43:12.123Z,4.20
2023-02-02T19:45:39.715Z,4.20
2023-02-02T19:48:17.545Z,6.80
2023-02-02T19:50:44.479Z,4.10
2023-02-02T19:53:14.117Z,4.10
2023-02-02T19:55:41.273Z,4.00
2023-02-02T19:58:31.528Z,4.10
2023-02-02T20:00:58.637Z,4.00
2023-02-02T20:03:34.388Z,4.10
2023-02-02T20:06:03.644Z,4.00
2023-02-02T20:08:40.253Z,4.00
2023-02-02T20:11:12.706Z,5.20
2023-02-02T20:13:43.432Z,3.90
2023-02-02T20:16:20.247Z,3.90
2023-02-02T20:18:54.065Z,3.80
2023-02-02T20:21:27.416Z,3.80
2023-02-02T20:23:53.976Z,3.80
2023-02-02T20:26:28.500Z,4.90
2023-02-02T20:28:59.420Z,3.70
2023-02-02T20:31:34.530Z,3.70
2023-02-02T20:34:01.371Z,3.80
2023-02-02T20:36:39.151Z,3.70
2023-02-02T20:39:27.452Z,3.70
2023-02-02T20:41:55.026Z,3.70
2023-02-02T20:44:21.640Z,3.70
2023-02-02T20:46:48.350Z,3.70
2023-02-02T20:49:15.019Z,3.70
2023-02-02T20:51:41.725Z,3.60
2023-02-02T20:54:09.436Z,3.70
2023-02-02T20:56:36.164Z,3.70
2023-02-02T20:59:03.291Z,3.70
2023-02-02T21:01:31.274Z,3.70
2023-02-02T21:03:57.841Z,3.60
2023-02-02T21:06:24.565Z,3.60
2023-02-02T21:08:52.463Z,3.60
2023-02-02T21:11:19.316Z,3.60
2023-02-02T21:13:45.914Z,3.60
2023-02-02T21:16:12.554Z,3.50
2023-02-02T21:18:39.101Z,3.50
2023-02-02T21:21:05.715Z,3.50
2023-02-02T21:23:32.251Z,3.40
2023-02-02T21:25:58.902Z,3.30
2023-02-02T21:28:25.497Z,3.40
2023-02-02T21:30:52.175Z,3.20
2023-02-02T21:33:18.823Z,3.20
2023-02-02T21:35:45.443Z,3.20
2023-02-02T21:38:13.803Z,3.30
2023-02-02T21:40:40.458Z,3.30
2023-02-02T21:43:14.992Z,3.40
2023-02-02T21:45:42.628Z,3.30
2023-02-02T21:48:18.207Z,3.40
2023-02-02T21:50:44.922Z,3.40
2023-02-02T21:53:20.042Z,3.50
2023-02-02T21:55:49.755Z,3.50
2023-02-02T21:58:19.114Z,3.70
2023-02-02T22:00:46.076Z,3.70
2023-02-02T22:03:24.498Z,3.70
2023-02-02T22:05:51.332Z,3.70
2023-02-02T22:08:20.764Z,3.80
2023-02-02T22:10:47.589Z,3.80
2023-02-02T22:13:21.569Z,3.80
2023-02-02T22:15:49.757Z,3.80
2023-02-02T22:18:18.671Z,3.90
2023-02-02T22:20:47.417Z,3.90
2023-02-02T22:23:32.222Z,3.90
2023-02-02T22:25:59.181Z,3.90
2023-02-02T22:28:28.255Z,3.90
2023-02-02T22:30:56.039Z,3.90
2023-02-02T22:33:23.450Z,3.90
2023-02-02T22:35:50.592Z,3.90
2023-02-02T22:38:21.662Z,3.90
2023-02-02T22:40:48.940Z,3.90
2023-02-02T22:43:16.595Z,3.90
2023-02-02T22:45:43.823Z,3.90
2023-02-02T22:48:10.737Z,3.90
2023-02-02T22:50:39.564Z,3.80
2023-02-02T22:53:06.246Z,3.90
2023-02-02T22:55:33.045Z,3.90
2023-02-02T22:57:59.678Z,3.90
2023-02-02T23:00:30.363Z,5.20
2023-02-02T23:02:57.046Z,3.80
2023-02-02T23:05:24.571Z,3.90
2023-02-02T23:07:51.254Z,3.90
2023-02-02T23:10:19.488Z,3.90
2023-02-02T23:12:46.847Z,3.80
2023-02-02T23:15:13.717Z,3.80
2023-02-02T23:17:40.626Z,3.80
2023-02-02T23:20:08.900Z,3.80
2023-02-02T23:22:35.710Z,3.80
2023-02-02T23:25:02.375Z,3.80
2023-02-02T23:27:29.123Z,3.80
2023-02-02T23:29:55.763Z,3.80
2023-02-02T23:32:22.446Z,3.80
2023-02-02T23:34:49.123Z,3.80
2023-02-02T23:37:15.719Z,4.70
2023-02-02T23:39:42.368Z,3.80
2023-02-02T23:42:08.993Z,3.80
2023-02-02T23:44:35.593Z,3.80
2023-02-02T23:47:02.581Z,3.80
2023-02-02T23:49:30.810Z,3.80
2023-02-02T23:51:57.502Z,3.80
2023-02-02T23:54:24.501Z,3.70
2023-02-02T23:56:51.476Z,3.80
2023-02-02T23:59:18.117Z,3.80
